createdAt,value
2022-08-01T00:00:15.637Z,21.06
2022-08-01T00:02:42.736Z,21.21
2022-08-01T00:05:10.260Z,21.31
2022-08-01T00:07:38.115Z,21.09
2022-08-01T00:10:07.055Z,20.75
2022-08-01T00:12:34.157Z,20.60
2022-08-01T00:15:01.474Z,20.48
2022-08-01T00:17:28.486Z,20.72
2022-08-01T00:19:55.422Z,20.85
2022-08-01T00:22:22.348Z,20.90
2022-08-01T00:24:49.308Z,20.95
2022-08-01T00:27:16.269Z,20.84
2022-08-01T00:30:10.754Z,21.17
2022-08-01T00:32:32.777Z,21.05
2022-08-01T00:34:59.708Z,21.18
2022-08-01T00:37:26.767Z,21.15
2022-08-01T00:39:53.835Z,21.23
2022-08-01T00:42:21.217Z,21.31
2022-08-01T00:44:48.218Z,21.43
2022-08-01T00:47:15.212Z,21.42
2022-08-01T00:49:42.340Z,21.56
2022-08-01T00:52:10.759Z,21.50
2022-08-01T00:54:37.974Z,21.31
2022-08-01T00:57:09.960Z,20.80
2022-08-01T00:59:39.936Z,20.61
2022-08-01T01:02:14.603Z,20.57
2022-08-01T01:04:42.978Z,20.31
2022-08-01T01:07:36.290Z,20.36
2022-08-01T01:10:23.354Z,20.56
2022-08-01T01:12:57.070Z,20.57
2022-08-01T01:15:40.642Z,20.81
2022-08-01T01:18:12.658Z,20.45
2022-08-01T01:20:42.680Z,20.48
2022-08-01T01:23:34.898Z,19.97
2022-08-01T01:26:19.977Z,19.82
2022-08-01T01:29:18.302Z,20.34
2022-08-01T01:31:51.049Z,20.77
2022-08-01T01:34:20.932Z,20.77
2022-08-01T01:36:50.979Z,20.78
2022-08-01T01:39:18.787Z,20.74
2022-08-01T01:41:48.042Z,20.52
2022-08-01T01:44:17.228Z,20.45
2022-08-01T01:46:45.057Z,20.51
2022-08-01T01:49:13.165Z,20.26
2022-08-01T01:51:43.321Z,20.48
2022-08-01T01:54:29.247Z,20.50
2022-08-01T01:56:59.495Z,20.31
2022-08-01T01:59:30.770Z,20.28
2022-08-01T02:02:06.352Z,20.25
2022-08-01T02:04:37.117Z,20.09
2022-08-01T02:07:05.112Z,20.38
2022-08-01T02:09:35.284Z,20.41
2022-08-01T02:12:08.142Z,20.59
2022-08-01T02:14:36.879Z,20.55
2022-08-01T02:17:07.207Z,20.56
2022-08-01T02:19:38.423Z,20.46
2022-08-01T02:22:11.191Z,20.60
2022-08-01T02:25:00.646Z,20.19
2022-08-01T02:28:11.730Z,20.27
2022-08-01T02:30:44.081Z,20.18
2022-08-01T02:33:19.723Z,20.11
2022-08-01T02:36:32.564Z,20.41
2022-08-01T02:38:44.541Z,20.43
2022-08-01T02:41:18.004Z,20.53
2022-08-01T02:43:50.718Z,20.53
2022-08-01T02:46:30.929Z,20.44
2022-08-01T02:49:02.440Z,20.35
2022-08-01T02:51:30.954Z,20.42
2022-08-01T02:54:00.140Z,20.38
2022-08-01T02:56:35.899Z,20.25
2022-08-01T02:59:13.744Z,20.08
2022-08-01T03:01:43.680Z,20.14
2022-08-01T03:04:12.216Z,20.17
2022-08-01T03:06:40.324Z,20.23
2022-08-01T03:09:12.366Z,20.24
2022-08-01T03:11:42.885Z,20.38
2022-08-01T03:14:12.622Z,20.22
2022-08-01T03:16:43.127Z,20.30
2022-08-01T03:19:12.479Z,20.05
2022-08-01T03:21:41.878Z,20.13
2022-08-01T03:24:11.003Z,20.02
2022-08-01T03:26:39.996Z,20.03
2022-08-01T03:29:10.978Z,20.24
2022-08-01T03:31:39.418Z,20.24
2022-08-01T03:34:08.059Z,20.19
2022-08-01T03:36:38.606Z,20.10
2022-08-01T03:39:09.105Z,20.07
2022-08-01T03:41:41.899Z,19.93
2022-08-01T03:44:14.539Z,19.98
2022-08-01T03:46:49.990Z,19.93
2022-08-01T03:49:27.046Z,19.97
2022-08-01T03:51:55.791Z,20.38
2022-08-01T03:54:25.982Z,20.46
2022-08-01T03:56:53.610Z,20.48
2022-08-01T03:59:21.793Z,20.54
2022-08-01T04:01:49.439Z,20.66
2022-08-01T04:04:16.829Z,20.75
2022-08-01T04:06:46.602Z,20.73
2022-08-01T04:09:14.035Z,20.80
2022-08-01T04:11:42.026Z,20.98
2022-08-01T04:14:09.339Z,21.13
2022-08-01T04:16:36.831Z,21.18
2022-08-01T04:19:04.132Z,21.21
2022-08-01T04:21:33.877Z,21.46
2022-08-01T04:24:06.079Z,21.59
2022-08-01T04:26:35.954Z,21.76
2022-08-01T04:29:06.030Z,21.49
2022-08-01T04:31:35.229Z,21.35
2022-08-01T04:34:06.090Z,21.52
2022-08-01T04:36:37.071Z,21.51
2022-08-01T04:39:06.276Z,21.73
2022-08-01T04:41:34.650Z,22.00
2022-08-01T04:44:03.784Z,22.42
2022-08-01T04:46:31.074Z,22.50
2022-08-01T04:48:58.590Z,22.35
2022-08-01T04:51:25.716Z,21.88
2022-08-01T04:53:52.910Z,21.84
2022-08-01T04:56:21.891Z,21.70
2022-08-01T04:58:49.062Z,21.66
2022-08-01T05:01:16.764Z,21.68
2022-08-01T05:03:45.150Z,21.82
2022-08-01T05:06:12.096Z,22.07
2022-08-01T05:08:39.005Z,22.41
2022-08-01T05:11:06.155Z,22.35
2022-08-01T05:13:33.167Z,22.52
2022-08-01T05:16:00.319Z,22.90
2022-08-01T05:18:28.696Z,23.05
2022-08-01T05:20:56.237Z,23.11
2022-08-01T05:23:42.187Z,23.01
2022-08-01T05:26:11.825Z,22.68
2022-08-01T05:28:42.609Z,22.88
2022-08-01T05:31:09.678Z,22.72
2022-08-01T05:33:36.943Z,22.83
2022-08-01T05:36:04.191Z,22.89
2022-08-01T05:38:31.111Z,22.86
2022-08-01T05:40:58.090Z,22.94
2022-08-01T05:43:28.639Z,23.09
2022-08-01T05:45:56.525Z,23.06
2022-08-01T05:48:23.556Z,23.43
2022-08-01T05:50:53.020Z,23.51
2022-08-01T05:53:23.737Z,23.49
2022-08-01T05:55:50.960Z,23.37
2022-08-01T05:58:18.008Z,23.50
2022-08-01T06:00:44.912Z,23.35
2022-08-01T06:03:12.564Z,23.67
2022-08-01T06:05:39.518Z,23.81
2022-08-01T06:08:06.566Z,24.09
2022-08-01T06:10:33.615Z,24.13
2022-08-01T06:13:04.029Z,24.16
2022-08-01T06:15:34.256Z,24.57
2022-08-01T06:18:01.222Z,24.69
2022-08-01T06:20:28.281Z,24.45
2022-08-01T06:22:55.866Z,24.26
2022-08-01T06:25:23.456Z,24.32
2022-08-01T06:27:50.852Z,24.53
2022-08-01T06:30:17.853Z,24.49
2022-08-01T06:32:44.924Z,24.62
2022-08-01T06:35:12.135Z,24.65
2022-08-01T06:37:39.108Z,24.96
2022-08-01T06:40:10.437Z,25.09
2022-08-01T06:42:40.672Z,24.93
2022-08-01T06:45:10.983Z,24.82
2022-08-01T06:47:39.362Z,24.91
2022-08-01T06:50:09.771Z,25.05
2022-08-01T06:52:38.148Z,25.04
2022-08-01T06:55:05.681Z,25.12
2022-08-01T06:57:32.673Z,25.06
2022-08-01T07:00:04.028Z,24.90
2022-08-01T07:02:31.143Z,24.73
2022-08-01T07:05:01.504Z,25.11
2022-08-01T07:07:31.565Z,25.65
2022-08-01T07:09:58.522Z,26.01
2022-08-01T07:12:25.581Z,25.83
2022-08-01T07:14:52.620Z,25.71
2022-08-01T07:17:21.557Z,25.51
2022-08-01T07:19:48.807Z,25.86
2022-08-01T07:22:21.010Z,25.50
2022-08-01T07:24:54.468Z,25.95
2022-08-01T07:27:23.985Z,26.24
2022-08-01T07:29:53.061Z,26.13
2022-08-01T07:32:20.858Z,26.22
2022-08-01T07:34:47.780Z,26.85
2022-08-01T07:37:14.683Z,26.68
2022-08-01T07:39:41.813Z,26.83
2022-08-01T07:42:09.205Z,26.88
2022-08-01T07:44:37.524Z,27.39
2022-08-01T07:47:05.681Z,27.64
2022-08-01T07:49:36.272Z,27.14
2022-08-01T07:52:06.750Z,27.91
2022-08-01T07:54:34.593Z,27.58
2022-08-01T07:57:03.198Z,27.53
2022-08-01T07:59:30.682Z,27.55
2022-08-01T08:01:57.794Z,27.49
2022-08-01T08:04:24.896Z,27.85
2022-08-01T08:06:51.967Z,27.58
2022-08-01T08:09:18.971Z,27.74
2022-08-01T08:11:48.058Z,27.48
2022-08-01T08:14:19.134Z,28.42
2022-08-01T08:16:46.586Z,28.04
2022-08-01T08:19:13.709Z,28.59
2022-08-01T08:21:41.243Z,28.86
2022-08-01T08:24:26.716Z,28.95
2022-08-01T08:26:59.657Z,28.92
2022-08-01T08:29:28.196Z,28.93
2022-08-01T08:31:57.023Z,28.41
2022-08-01T08:34:24.872Z,28.72
2022-08-01T08:36:52.439Z,29.13
2022-08-01T08:39:20.252Z,28.57
2022-08-01T08:41:49.482Z,28.57
2022-08-01T08:44:17.355Z,29.21
2022-08-01T08:46:50.217Z,30.32
2022-08-01T08:49:20.486Z,30.49
2022-08-01T08:51:51.227Z,30.13
2022-08-01T08:54:21.934Z,29.60
2022-08-01T08:57:00.336Z,29.39
2022-08-01T08:59:28.661Z,30.37
2022-08-01T09:01:55.943Z,30.02
2022-08-01T09:04:26.651Z,30.27
2022-08-01T09:06:55.133Z,30.34
2022-08-01T09:09:23.162Z,29.76
2022-08-01T09:12:06.672Z,30.16
2022-08-01T09:14:36.203Z,30.09
2022-08-01T09:17:11.405Z,30.12
2022-08-01T09:19:48.898Z,30.60
2022-08-01T09:22:23.625Z,30.71
2022-08-01T09:25:09.744Z,30.99
2022-08-01T09:27:44.077Z,31.24
2022-08-01T09:30:19.593Z,31.64
2022-08-01T09:33:17.933Z,31.71
2022-08-01T09:35:56.387Z,31.25
2022-08-01T09:38:30.133Z,30.86
2022-08-01T09:41:01.994Z,30.50
2022-08-01T09:43:32.244Z,30.48
2022-08-01T09:46:01.049Z,30.59
2022-08-01T09:48:30.178Z,30.42
2022-08-01T09:51:04.803Z,30.55
2022-08-01T09:53:50.892Z,30.64
2022-08-01T09:56:20.788Z,30.93
2022-08-01T09:58:58.829Z,31.87
2022-08-01T10:01:36.781Z,32.68
2022-08-01T10:04:11.819Z,31.50
2022-08-01T10:06:41.777Z,32.21
2022-08-01T10:09:08.925Z,32.47
2022-08-01T10:11:40.358Z,33.33
2022-08-01T10:14:08.385Z,33.60
2022-08-01T10:16:39.375Z,33.38
2022-08-01T10:19:11.230Z,33.14
2022-08-01T10:21:57.074Z,32.74
2022-08-01T10:24:33.620Z,33.44
2022-08-01T10:27:08.400Z,34.07
2022-08-01T10:30:05.176Z,34.74
2022-08-01T10:32:36.142Z,33.83
2022-08-01T10:35:06.889Z,33.36
2022-08-01T10:37:52.216Z,33.33
2022-08-01T10:40:36.981Z,33.18
2022-08-01T10:43:04.298Z,31.73
2022-08-01T10:45:32.410Z,31.90
2022-08-01T10:48:26.393Z,30.93
2022-08-01T10:51:01.150Z,31.05
2022-08-01T10:53:31.539Z,30.28
2022-08-01T10:56:13.028Z,31.69
2022-08-01T10:58:47.123Z,32.75
2022-08-01T11:01:23.425Z,32.59
2022-08-01T11:04:01.954Z,32.22
2022-08-01T11:06:44.199Z,32.47
2022-08-01T11:09:16.433Z,31.99
2022-08-01T11:12:01.012Z,33.04
2022-08-01T11:14:54.863Z,33.68
2022-08-01T11:17:42.160Z,33.13
2022-08-01T11:20:20.090Z,32.40
2022-08-01T11:23:16.793Z,31.49
2022-08-01T11:26:05.731Z,31.13
2022-08-01T11:28:35.729Z,30.73
2022-08-01T11:31:07.423Z,30.83
2022-08-01T11:33:46.062Z,30.96
2022-08-01T11:36:14.545Z,30.75
2022-08-01T11:38:53.019Z,30.37
2022-08-01T11:41:37.737Z,29.92
2022-08-01T11:44:20.696Z,29.96
2022-08-01T11:46:48.619Z,30.18
2022-08-01T11:49:34.043Z,31.01
2022-08-01T11:52:15.020Z,30.97
2022-08-01T11:54:43.805Z,30.59
2022-08-01T11:57:34.573Z,31.16
2022-08-01T12:00:17.386Z,31.97
2022-08-01T12:02:46.944Z,31.35
2022-08-01T12:05:17.839Z,31.89
2022-08-01T12:07:46.026Z,32.92
2022-08-01T12:10:17.686Z,32.90
2022-08-01T12:12:48.694Z,32.98
2022-08-01T12:15:16.114Z,33.52
2022-08-01T12:17:58.261Z,33.22
2022-08-01T12:20:31.352Z,31.83
2022-08-01T12:23:01.939Z,32.66
2022-08-01T12:25:29.687Z,33.59
2022-08-01T12:28:01.536Z,35.05
2022-08-01T12:30:29.602Z,35.52
2022-08-01T12:32:57.020Z,36.34
2022-08-01T12:35:25.994Z,34.37
2022-08-01T12:37:55.324Z,31.98
2022-08-01T12:40:28.351Z,32.79
2022-08-01T12:42:57.782Z,32.57
2022-08-01T12:45:35.281Z,33.47
2022-08-01T12:48:03.297Z,34.08
2022-08-01T12:50:32.931Z,34.49
2022-08-01T12:53:01.968Z,33.82
2022-08-01T12:55:34.186Z,33.18
2022-08-01T12:58:20.441Z,32.99
2022-08-01T13:00:50.355Z,33.05
2022-08-01T13:03:20.362Z,32.41
2022-08-01T13:05:55.620Z,32.44
2022-08-01T13:08:25.964Z,32.19
2022-08-01T13:11:09.950Z,32.02
2022-08-01T13:13:49.796Z,31.66
2022-08-01T13:16:30.420Z,31.59
2022-08-01T13:19:01.862Z,32.04
2022-08-01T13:21:52.352Z,32.23
2022-08-01T13:24:30.723Z,33.01
2022-08-01T13:27:01.873Z,33.10
2022-08-01T13:29:38.416Z,33.26
2022-08-01T13:32:28.006Z,32.61
2022-08-01T13:35:06.552Z,32.46
2022-08-01T13:37:33.766Z,32.76
2022-08-01T13:40:00.994Z,31.29
2022-08-01T13:42:30.290Z,31.36
2022-08-01T13:44:57.294Z,31.90
2022-08-01T13:47:31.931Z,32.52
2022-08-01T13:50:04.106Z,33.29
2022-08-01T13:52:32.425Z,32.74
2022-08-01T13:55:02.225Z,32.79
2022-08-01T13:57:37.187Z,32.54
2022-08-01T14:00:09.930Z,33.07
2022-08-01T14:02:40.241Z,32.61
2022-08-01T14:05:07.691Z,32.83
2022-08-01T14:07:34.723Z,32.80
2022-08-01T14:10:18.606Z,32.28
2022-08-01T14:12:50.805Z,32.12
2022-08-01T14:15:38.068Z,32.54
2022-08-01T14:18:06.253Z,32.96
2022-08-01T14:20:34.130Z,33.06
2022-08-01T14:23:01.053Z,32.85
2022-08-01T14:25:59.220Z,32.40
2022-08-01T14:28:15.159Z,31.83
2022-08-01T14:30:43.725Z,31.73
2022-08-01T14:33:12.009Z,31.71
2022-08-01T14:36:01.284Z,31.58
2022-08-01T14:38:32.503Z,31.75
2022-08-01T14:41:00.582Z,31.34
2022-08-01T14:43:32.877Z,31.19
2022-08-01T14:46:04.682Z,31.09
2022-08-01T14:48:32.015Z,31.01
2022-08-01T14:51:01.559Z,31.10
2022-08-01T14:53:28.540Z,31.14
2022-08-01T14:55:55.457Z,31.43
2022-08-01T14:58:22.437Z,31.11
2022-08-01T15:00:49.501Z,31.11
2022-08-01T15:03:17.017Z,31.40
2022-08-01T15:05:44.274Z,31.52
2022-08-01T15:08:11.184Z,31.62
2022-08-01T15:10:38.158Z,31.38
2022-08-01T15:13:05.290Z,31.39
2022-08-01T15:15:32.391Z,31.16
2022-08-01T15:17:59.388Z,31.02
2022-08-01T15:20:28.075Z,31.02
2022-08-01T15:22:55.477Z,30.66
2022-08-01T15:25:22.510Z,30.66
2022-08-01T15:27:49.520Z,30.31
2022-08-01T15:30:17.603Z,29.95
2022-08-01T15:32:51.138Z,30.06
2022-08-01T15:35:18.363Z,29.88
2022-08-01T15:37:45.348Z,29.83
2022-08-01T15:40:12.980Z,29.67
2022-08-01T15:42:40.143Z,29.78
2022-08-01T15:45:10.701Z,29.74
2022-08-01T15:47:40.505Z,30.22
2022-08-01T15:50:08.142Z,30.74
2022-08-01T15:52:35.164Z,30.26
2022-08-01T15:55:02.537Z,29.64
2022-08-01T15:57:29.634Z,29.41
2022-08-01T15:59:56.707Z,29.36
2022-08-01T16:02:23.803Z,29.45
2022-08-01T16:04:51.046Z,29.27
2022-08-01T16:07:18.055Z,28.84
2022-08-01T16:09:45.006Z,28.65
2022-08-01T16:12:12.030Z,28.67
2022-08-01T16:14:39.022Z,28.64
2022-08-01T16:17:05.899Z,28.73
2022-08-01T16:19:32.819Z,28.96
2022-08-01T16:21:59.768Z,28.82
2022-08-01T16:24:29.280Z,28.54
2022-08-01T16:26:56.272Z,28.53
2022-08-01T16:29:23.745Z,28.74
2022-08-01T16:32:00.915Z,28.70
2022-08-01T16:34:38.034Z,28.54
2022-08-01T16:37:09.133Z,28.54
2022-08-01T16:39:36.072Z,28.44
2022-08-01T16:42:03.315Z,28.39
2022-08-01T16:44:33.963Z,28.61
2022-08-01T16:47:03.724Z,28.37
2022-08-01T16:49:32.175Z,28.40
2022-08-01T16:51:59.304Z,28.16
2022-08-01T16:54:26.664Z,28.13
2022-08-01T16:56:54.587Z,28.09
2022-08-01T16:59:23.195Z,27.88
2022-08-01T17:02:01.366Z,28.02
2022-08-01T17:04:32.230Z,27.73
2022-08-01T17:06:59.538Z,27.63
2022-08-01T17:09:26.605Z,27.33
2022-08-01T17:11:53.615Z,27.26
2022-08-01T17:14:20.534Z,27.44
2022-08-01T17:16:47.504Z,27.42
2022-08-01T17:19:14.629Z,27.51
2022-08-01T17:21:42.539Z,27.27
2022-08-01T17:24:11.537Z,27.31
2022-08-01T17:26:42.501Z,27.27
2022-08-01T17:29:09.450Z,27.12
2022-08-01T17:31:36.390Z,26.94
2022-08-01T17:34:03.418Z,26.72
2022-08-01T17:36:30.378Z,26.79
2022-08-01T17:38:59.323Z,26.70
2022-08-01T17:41:26.404Z,26.49
2022-08-01T17:43:53.472Z,26.44
2022-08-01T17:46:20.403Z,26.46
2022-08-01T17:48:47.495Z,26.53
2022-08-01T17:51:18.127Z,26.69
2022-08-01T17:53:56.976Z,26.40
2022-08-01T17:56:26.836Z,26.37
2022-08-01T17:58:53.862Z,26.35
2022-08-01T18:01:21.409Z,26.47
2022-08-01T18:03:48.502Z,26.50
2022-08-01T18:06:23.083Z,26.34
2022-08-01T18:08:55.287Z,26.40
2022-08-01T18:11:24.769Z,26.20
2022-08-01T18:13:55.415Z,26.23
2022-08-01T18:16:22.805Z,26.37
2022-08-01T18:18:49.766Z,26.15
2022-08-01T18:21:16.701Z,26.30
2022-08-01T18:23:51.061Z,26.24
2022-08-01T18:26:20.793Z,26.12
2022-08-01T18:28:47.883Z,26.42
2022-08-01T18:31:17.797Z,26.34
2022-08-01T18:33:46.281Z,26.20
2022-08-01T18:36:26.508Z,26.51
2022-08-01T18:39:00.513Z,26.61
2022-08-01T18:41:29.007Z,26.48
2022-08-01T18:44:03.922Z,26.19
2022-08-01T18:46:35.036Z,25.82
2022-08-01T18:49:02.085Z,25.44
2022-08-01T18:51:29.448Z,25.20
2022-08-01T18:53:57.943Z,24.94
2022-08-01T18:56:24.987Z,24.89
2022-08-01T18:58:54.842Z,24.95
2022-08-01T19:01:22.453Z,24.69
2022-08-01T19:03:49.875Z,24.81
2022-08-01T19:06:16.855Z,24.71
2022-08-01T19:08:44.849Z,24.57
2022-08-01T19:11:12.056Z,24.67
2022-08-01T19:13:39.263Z,24.68
2022-08-01T19:16:06.450Z,24.97
2022-08-01T19:18:33.941Z,24.54
2022-08-01T19:21:07.089Z,24.17
2022-08-01T19:23:53.688Z,24.22
2022-08-01T19:26:23.390Z,24.26
2022-08-01T19:28:55.912Z,24.34
2022-08-01T19:31:27.670Z,24.89
2022-08-01T19:33:57.112Z,25.03
2022-08-01T19:36:24.686Z,25.30
2022-08-01T19:38:51.616Z,25.44
2022-08-01T19:41:19.618Z,25.61
2022-08-01T19:43:48.201Z,25.49
2022-08-01T19:46:18.176Z,25.45
2022-08-01T19:48:49.995Z,25.39
2022-08-01T19:51:22.813Z,25.46
2022-08-01T19:54:05.180Z,25.24
2022-08-01T19:56:39.929Z,25.23
2022-08-01T19:59:09.857Z,24.99
2022-08-01T20:01:37.452Z,24.69
2022-08-01T20:04:04.967Z,24.63
2022-08-01T20:06:33.453Z,24.64
2022-08-01T20:09:01.735Z,24.72
2022-08-01T20:11:28.704Z,24.63
2022-08-01T20:13:57.193Z,24.93
2022-08-01T20:16:26.019Z,24.90
2022-08-01T20:18:53.046Z,24.81
2022-08-01T20:21:23.073Z,24.68
2022-08-01T20:23:51.605Z,24.52
2022-08-01T20:26:22.256Z,24.71
2022-08-01T20:28:49.499Z,24.78
2022-08-01T20:31:16.994Z,24.73
2022-08-01T20:33:47.830Z,24.22
2022-08-01T20:36:24.998Z,24.16
2022-08-01T20:38:56.878Z,24.29
2022-08-01T20:41:25.879Z,23.98
2022-08-01T20:43:55.223Z,23.59
2022-08-01T20:46:25.391Z,23.50
2022-08-01T20:48:57.678Z,23.48
2022-08-01T20:51:26.128Z,23.39
2022-08-01T20:53:54.338Z,23.76
2022-08-01T20:56:41.385Z,23.79
2022-08-01T20:59:54.730Z,23.33
2022-08-01T21:02:25.770Z,22.97
2022-08-01T21:04:53.358Z,22.96
2022-08-01T21:07:27.386Z,22.94
2022-08-01T21:10:13.664Z,22.52
2022-08-01T21:12:50.558Z,22.71
2022-08-01T21:15:20.467Z,22.65
2022-08-01T21:17:52.794Z,22.69
2022-08-01T21:20:20.212Z,22.88
2022-08-01T21:23:02.268Z,22.51
2022-08-01T21:25:34.989Z,22.79
2022-08-01T21:28:03.298Z,22.50
2022-08-01T21:30:32.070Z,22.43
2022-08-01T21:32:59.632Z,22.53
2022-08-01T21:35:28.099Z,22.71
2022-08-01T21:37:58.580Z,22.57
2022-08-01T21:40:25.893Z,22.67
2022-08-01T21:42:54.536Z,22.89
2022-08-01T21:45:25.657Z,22.98
2022-08-01T21:47:53.727Z,22.89
2022-08-01T21:50:22.381Z,22.77
2022-08-01T21:53:02.979Z,22.74
2022-08-01T21:56:13.574Z,22.80
2022-08-01T21:58:41.958Z,22.90
2022-08-01T22:01:18.438Z,22.85
2022-08-01T22:03:52.473Z,22.80
2022-08-01T22:06:23.125Z,22.63
2022-08-01T22:08:52.767Z,22.75
2022-08-01T22:11:22.971Z,22.39
2022-08-01T22:13:54.275Z,22.58
2022-08-01T22:16:21.796Z,22.75
2022-08-01T22:18:49.136Z,22.83
2022-08-01T22:21:17.482Z,22.03
2022-08-01T22:23:44.676Z,22.12
2022-08-01T22:26:12.445Z,22.10
2022-08-01T22:28:40.450Z,22.28
2022-08-01T22:31:07.643Z,22.44
2022-08-01T22:33:36.694Z,22.28
2022-08-01T22:36:05.390Z,22.07
2022-08-01T22:38:33.113Z,22.36
2022-08-01T22:41:14.187Z,22.57
2022-08-01T22:43:49.976Z,21.92
2022-08-01T22:46:39.527Z,21.76
2022-08-01T22:49:31.224Z,21.16
2022-08-01T22:52:07.812Z,21.08
2022-08-01T22:54:37.851Z,21.30
2022-08-01T22:57:10.791Z,21.39
2022-08-01T23:00:02.543Z,21.65
2022-08-01T23:02:33.105Z,21.75
2022-08-01T23:05:08.367Z,21.76
2022-08-01T23:07:40.054Z,21.75
2022-08-01T23:10:08.369Z,21.83
2022-08-01T23:12:36.772Z,21.83
2022-08-01T23:15:04.331Z,21.84
2022-08-01T23:17:32.441Z,21.76
2022-08-01T23:20:06.180Z,21.66
2022-08-01T23:22:35.615Z,21.53
2022-08-01T23:25:06.875Z,21.62
2022-08-01T23:28:04.536Z,21.73
2022-08-01T23:30:25.930Z,21.57
2022-08-01T23:32:53.183Z,21.77
2022-08-01T23:35:20.530Z,21.77
2022-08-01T23:37:47.558Z,21.81
2022-08-01T23:40:14.499Z,21.94
2022-08-01T23:42:41.407Z,21.93
2022-08-01T23:45:08.951Z,22.31
2022-08-01T23:47:35.960Z,22.51
2022-08-01T23:50:03.326Z,22.49
2022-08-01T23:52:32.271Z,22.12
2022-08-01T23:55:10.193Z,21.76
2022-08-01T23:57:42.112Z,20.98
